createdAt,value
2023-05-11T00:02:26.903Z,17.33
2023-05-11T00:04:54.506Z,17.03
2023-05-11T00:07:21.396Z,18.00
2023-05-11T00:09:47.932Z,20.13
2023-05-11T00:12:14.877Z,18.98
2023-05-11T00:14:41.512Z,17.88
2023-05-11T00:17:08.002Z,18.23
2023-05-11T00:19:34.606Z,18.33
2023-05-11T00:22:01.736Z,22.17
2023-05-11T00:24:28.374Z,17.20
2023-05-11T00:26:55.481Z,19.40
2023-05-11T00:29:22.174Z,20.17
2023-05-11T00:31:48.796Z,21.33
2023-05-11T00:34:16.600Z,19.13
2023-05-11T00:36:43.822Z,23.60
2023-05-11T00:39:11.990Z,18.60
2023-05-11T00:41:39.354Z,15.43
2023-05-11T00:44:06.153Z,20.02
2023-05-11T00:46:33.618Z,21.10
2023-05-11T00:49:00.481Z,21.52
2023-05-11T00:51:27.973Z,18.98
2023-05-11T00:53:55.821Z,20.37
2023-05-11T00:59:10.404Z,21.13
2023-05-11T01:01:39.615Z,21.33
2023-05-11T01:07:11.805Z,20.70
2023-05-11T01:12:58.098Z,20.67
2023-05-11T01:15:50.831Z,20.88
2023-05-11T01:18:49.574Z,23.70
2023-05-11T04:01:24.579Z,23.35
2023-05-11T06:32:59.335Z,21.50
2023-05-11T06:35:26.002Z,21.65
2023-05-11T06:37:52.552Z,21.53
2023-05-11T06:40:19.491Z,18.92
2023-05-11T06:42:46.272Z,20.75
2023-05-11T06:45:13.086Z,21.05
2023-05-11T06:47:39.871Z,21.27
2023-05-11T06:50:06.892Z,17.93
2023-05-11T06:52:33.469Z,19.20
2023-05-11T06:55:00.159Z,21.63
2023-05-11T06:57:26.789Z,20.20
2023-05-11T06:59:53.391Z,19.20
2023-05-11T07:02:19.948Z,18.30
2023-05-11T07:04:47.759Z,19.65
2023-05-11T07:07:14.480Z,19.23
2023-05-11T07:09:42.090Z,16.85
2023-05-11T07:12:08.924Z,19.05
2023-05-11T07:14:35.555Z,18.17
2023-05-11T07:17:02.226Z,18.75
2023-05-11T07:19:28.905Z,18.27
2023-05-11T07:21:55.544Z,21.02
2023-05-11T07:24:22.245Z,22.13
2023-05-11T07:32:41.856Z,18.73
2023-05-11T07:38:15.878Z,21.70
2023-05-11T07:41:31.186Z,19.37
2023-05-11T07:44:23.614Z,19.90
2023-05-11T07:46:52.601Z,20.90
2023-05-11T07:49:25.424Z,17.50
2023-05-11T07:52:02.104Z,19.58
2023-05-11T07:54:28.916Z,18.27
2023-05-11T07:59:41.315Z,17.35
2023-05-11T08:02:36.538Z,18.00
2023-05-11T08:08:53.820Z,19.40
2023-05-11T08:27:21.156Z,16.13
2023-05-11T08:30:45.516Z,16.95
2023-05-11T08:33:33.874Z,13.35
2023-05-11T08:36:02.330Z,14.95
2023-05-11T08:38:28.888Z,12.45
2023-05-11T08:40:55.607Z,13.30
2023-05-11T08:43:24.244Z,14.43
2023-05-11T08:45:56.861Z,14.85
2023-05-11T08:48:26.909Z,12.60
2023-05-11T08:51:21.276Z,13.32
2023-05-11T08:53:47.998Z,15.23
2023-05-11T08:59:00.205Z,15.15
2023-05-11T09:01:29.703Z,14.55
2023-05-11T09:03:57.548Z,13.52
2023-05-11T09:06:26.842Z,64.00
2023-05-11T09:08:54.532Z,21.88
2023-05-11T09:11:22.916Z,11.48
2023-05-11T09:13:50.089Z,14.45
2023-05-11T09:16:32.993Z,10.45
2023-05-11T09:19:03.906Z,13.07
2023-05-11T09:21:31.847Z,13.65
2023-05-11T09:23:59.335Z,13.73
2023-05-11T09:26:29.431Z,14.07
2023-05-11T09:29:02.837Z,10.27
2023-05-11T09:31:39.136Z,10.73
2023-05-11T09:34:10.308Z,9.75
2023-05-11T09:36:36.950Z,10.55
2023-05-11T09:39:04.221Z,11.15
2023-05-11T09:41:35.215Z,9.95
2023-05-11T09:44:13.887Z,9.20
2023-05-11T09:46:42.473Z,9.63
2023-05-11T09:49:10.008Z,9.30
2023-05-11T09:51:40.411Z,7.85
2023-05-11T09:54:19.057Z,10.35
2023-05-11T09:56:51.779Z,10.27
2023-05-11T09:59:37.836Z,11.85
2023-05-11T10:02:27.338Z,11.38
2023-05-11T10:04:56.498Z,9.63
2023-05-11T10:07:32.188Z,9.15
2023-05-11T10:10:01.479Z,14.00
2023-05-11T10:12:40.500Z,18.80
2023-05-11T10:15:09.012Z,19.67
2023-05-11T10:17:36.974Z,84.88
2023-05-11T10:20:07.693Z,34.25
2023-05-11T10:22:34.783Z,26.70
2023-05-11T10:25:03.376Z,23.58
2023-05-11T10:27:31.892Z,23.80
2023-05-11T10:29:58.898Z,26.20
2023-05-11T10:32:25.576Z,19.52
2023-05-11T10:34:52.245Z,22.87
2023-05-11T10:37:21.006Z,20.38
2023-05-11T10:39:50.557Z,17.02
2023-05-11T10:42:30.887Z,18.25
2023-05-11T10:45:08.410Z,17.02
2023-05-11T10:47:35.909Z,15.63
2023-05-11T10:50:17.410Z,16.17
2023-05-11T10:52:57.980Z,16.45
2023-05-11T10:55:28.430Z,16.92
2023-05-11T10:58:02.357Z,16.48
2023-05-11T11:00:48.052Z,18.53
2023-05-11T11:03:15.549Z,13.57
2023-05-11T11:06:00.758Z,19.02
2023-05-11T11:08:28.879Z,19.58
2023-05-11T11:10:56.280Z,16.67
2023-05-11T11:13:24.487Z,16.57
2023-05-11T11:15:54.392Z,13.13
2023-05-11T11:18:23.241Z,14.40
2023-05-11T11:20:53.060Z,13.48
2023-05-11T11:23:38.466Z,10.90
2023-05-11T11:26:08.362Z,11.87
2023-05-11T11:28:54.648Z,11.23
2023-05-11T11:31:26.062Z,12.02
2023-05-11T11:33:55.278Z,16.00
2023-05-11T11:37:00.739Z,14.50
2023-05-11T11:39:53.371Z,11.53
2023-05-11T11:42:35.561Z,15.25
2023-05-11T11:45:29.064Z,15.07
2023-05-11T11:48:10.477Z,14.35
2023-05-11T11:50:37.260Z,11.57
2023-05-11T11:53:04.613Z,13.63
2023-05-11T11:55:48.035Z,11.95
2023-05-11T11:58:40.378Z,13.60
2023-05-11T12:01:08.940Z,12.07
2023-05-11T12:03:36.915Z,12.18
2023-05-11T12:06:07.205Z,14.20
2023-05-11T12:08:37.704Z,12.27
2023-05-11T12:11:08.137Z,13.82
2023-05-11T12:14:00.049Z,13.77
2023-05-11T12:16:26.882Z,12.27
2023-05-11T12:19:01.012Z,12.50
2023-05-11T12:21:30.227Z,12.52
2023-05-11T12:24:02.894Z,12.60
2023-05-11T12:26:31.102Z,13.30
2023-05-11T12:29:09.611Z,13.35
2023-05-11T12:31:49.816Z,14.03
2023-05-11T12:34:21.639Z,14.30
2023-05-11T12:36:50.212Z,13.60
2023-05-11T12:39:26.132Z,12.98
2023-05-11T12:41:55.409Z,13.70
2023-05-11T12:48:45.329Z,12.25
2023-05-11T12:50:27.557Z,13.83
2023-05-11T12:51:12.323Z,12.73
2023-05-11T13:01:32.820Z,10.57
2023-05-11T13:10:25.031Z,12.13
2023-05-11T13:12:52.479Z,7.28
2023-05-11T13:15:21.770Z,5.37
2023-05-11T13:18:01.871Z,5.60
2023-05-11T13:20:43.854Z,3.08
2023-05-11T13:36:40.160Z,1.77
2023-05-11T13:39:07.769Z,2.33
2023-05-11T13:41:34.418Z,2.60
2023-05-11T13:44:01.018Z,2.42
2023-05-11T13:46:28.208Z,2.00
2023-05-11T13:54:36.074Z,2.77
2023-05-11T13:57:07.393Z,2.55
2023-05-11T13:59:39.876Z,3.03
2023-05-11T14:02:07.394Z,3.05
2023-05-11T14:04:35.458Z,3.85
2023-05-11T14:07:06.241Z,5.00
2023-05-11T14:09:33.442Z,3.13
2023-05-11T14:12:02.457Z,2.78
2023-05-11T14:19:58.524Z,5.90
2023-05-11T14:22:29.507Z,3.20
2023-05-11T14:25:18.368Z,4.05
2023-05-11T14:28:17.824Z,3.10
2023-05-11T14:52:22.098Z,6.65
2023-05-11T14:54:49.623Z,4.18
2023-05-11T14:57:22.537Z,3.90
2023-05-11T15:00:16.799Z,4.63
2023-05-11T15:02:43.607Z,4.50
2023-05-11T15:05:13.447Z,4.72
2023-05-11T15:07:40.091Z,7.25
2023-05-11T15:10:07.885Z,6.13
2023-05-11T15:12:38.662Z,5.10
2023-05-11T15:15:05.699Z,4.20
2023-05-11T15:17:32.747Z,5.82
2023-05-11T15:20:00.395Z,6.57
2023-05-11T15:26:50.505Z,5.28
2023-05-11T15:32:06.965Z,3.33
2023-05-11T15:35:02.562Z,3.75
2023-05-11T15:37:29.255Z,3.30
2023-05-11T15:40:29.356Z,2.40
2023-05-11T15:42:58.892Z,4.07
2023-05-11T15:45:26.366Z,1.95
2023-05-11T15:47:54.161Z,2.55
2023-05-11T15:50:21.425Z,3.60
2023-05-11T15:52:48.448Z,2.97
2023-05-11T15:55:15.093Z,3.33
2023-05-11T15:57:42.006Z,3.10
2023-05-11T16:00:10.498Z,3.97
2023-05-11T16:02:37.396Z,4.65
2023-05-11T16:05:04.391Z,4.05
2023-05-11T16:07:31.519Z,5.40
2023-05-11T16:10:00.414Z,5.05
2023-05-11T16:12:27.138Z,2.58
2023-05-11T16:14:53.741Z,1.98
2023-05-11T16:17:20.421Z,2.63
2023-05-11T16:19:47.354Z,3.70
2023-05-11T16:22:13.886Z,2.58
2023-05-11T16:24:40.479Z,2.53
2023-05-11T16:27:07.580Z,3.50
2023-05-11T16:29:34.384Z,3.05
2023-05-11T16:32:01.534Z,2.13
2023-05-11T16:34:28.278Z,2.50
2023-05-11T16:36:57.223Z,3.25
2023-05-11T16:39:27.385Z,4.47
2023-05-11T16:41:53.957Z,3.83
2023-05-11T16:44:21.159Z,2.93
2023-05-11T16:46:48.332Z,2.97
2023-05-11T16:49:16.045Z,5.50
2023-05-11T16:51:43.432Z,4.75
2023-05-11T16:54:10.548Z,3.80
2023-05-11T16:56:37.462Z,3.80
2023-05-11T16:59:04.473Z,6.65
2023-05-11T17:01:32.089Z,4.13
2023-05-11T17:03:58.816Z,5.15
2023-05-11T17:06:27.559Z,4.00
2023-05-11T17:08:54.835Z,3.60
2023-05-11T17:11:21.690Z,3.67
2023-05-11T17:13:48.324Z,4.00
2023-05-11T17:16:14.986Z,3.08
2023-05-11T17:18:41.868Z,2.63
2023-05-11T17:21:08.726Z,3.30
2023-05-11T17:23:36.054Z,3.42
2023-05-11T17:26:10.441Z,2.95
2023-05-11T17:28:39.072Z,2.90
2023-05-11T17:31:12.116Z,2.97
2023-05-11T17:33:39.764Z,4.63
2023-05-11T17:36:06.930Z,3.67
2023-05-11T17:38:36.346Z,3.72
2023-05-11T17:41:05.541Z,4.07
2023-05-11T17:43:40.868Z,4.55
2023-05-11T17:46:07.517Z,4.50
2023-05-11T17:48:34.197Z,5.43
2023-05-11T17:51:01.251Z,4.57
2023-05-11T17:53:28.017Z,4.38
2023-05-11T17:55:58.306Z,4.05
2023-05-11T17:58:24.931Z,3.80
2023-05-11T18:00:51.941Z,3.47
2023-05-11T18:03:18.809Z,3.38
2023-05-11T18:05:49.096Z,4.28
2023-05-11T18:08:16.241Z,4.65
2023-05-11T18:10:42.962Z,3.13
2023-05-11T18:13:09.769Z,4.47
2023-05-11T18:15:36.455Z,4.80
2023-05-11T18:18:03.412Z,6.72
2023-05-11T18:20:30.833Z,5.82
2023-05-11T18:22:57.499Z,4.90
2023-05-11T18:25:24.695Z,3.78
2023-05-11T18:27:51.346Z,4.88
2023-05-11T18:30:20.465Z,4.20
2023-05-11T18:32:47.670Z,3.70
2023-05-11T18:35:16.493Z,4.57
2023-05-11T18:37:43.033Z,3.88
2023-05-11T18:40:11.471Z,3.75
2023-05-11T18:42:38.105Z,3.15
2023-05-11T18:45:05.194Z,3.88
2023-05-11T18:47:39.252Z,7.20
2023-05-11T18:50:06.476Z,3.90
2023-05-11T18:52:33.244Z,4.63
2023-05-11T18:55:01.037Z,13.88
2023-05-11T18:57:27.708Z,8.30
2023-05-11T18:59:54.349Z,8.10
2023-05-11T19:02:23.062Z,8.13
2023-05-11T19:04:49.736Z,11.82
2023-05-11T19:07:16.618Z,4.72
2023-05-11T19:09:46.166Z,4.55
2023-05-11T19:12:12.817Z,5.57
2023-05-11T19:14:39.778Z,5.50
2023-05-11T19:17:06.690Z,6.38
2023-05-11T19:19:34.412Z,5.70
2023-05-11T19:24:47.694Z,6.20
2023-05-11T19:30:20.425Z,6.57
2023-05-11T19:32:48.884Z,7.22
2023-05-11T19:35:17.418Z,5.93
2023-05-11T19:43:43.088Z,7.57
2023-05-11T19:48:53.375Z,7.60
2023-05-11T20:24:20.801Z,8.47
2023-05-11T20:26:47.651Z,7.85
2023-05-11T20:29:14.603Z,6.85
2023-05-11T20:31:43.083Z,6.20
2023-05-11T20:34:10.919Z,9.20
2023-05-11T20:39:22.197Z,8.35
2023-05-11T20:41:50.407Z,6.80
2023-05-11T20:44:32.858Z,5.90
2023-05-11T20:47:00.732Z,4.03
2023-05-11T20:49:38.468Z,3.87
2023-05-11T20:52:07.447Z,5.95
2023-05-11T20:55:01.393Z,5.50
2023-05-11T21:01:59.230Z,5.25
2023-05-11T21:04:27.367Z,5.17
2023-05-11T21:13:05.891Z,6.55
2023-05-11T21:15:58.167Z,6.55
2023-05-11T21:21:31.313Z,7.25
2023-05-11T21:24:58.036Z,7.07
2023-05-11T23:44:51.337Z,7.22
2023-05-11T23:54:28.907Z,5.32
2023-05-11T23:59:42.619Z,5.20
